Time;durP1;ratioP1;P1;durP2;ratioP2;P2;SDS_P1;SDS_P2;PMS_P1;PMS_P2;Temp;Humidity;BMP_temperature;BMP_pressure;BME280_temperature;BME280_humidity;BME280_pressure;Samples;Min_cycle;Max_cycle;Signal;HPM_P1;HPM_P2
2023/09/01 00:01:14;;;;;;;17.50;11.75;;;;;;;22.77;45.65;101252.19;5025751;28;20083;-38
2023/09/01 00:03:41;;;;;;;19.33;12.40;;;;;;;22.76;45.69;101257.78;5027238;28;20058;-38
2023/09/01 00:06:14;;;;;;;18.73;11.70;;;;;;;22.75;45.73;101254.22;5025163;28;20453;-38
2023/09/01 00:08:42;;;;;;;17.15;10.80;;;;;;;22.75;45.78;101253.38;5025006;28;20390;-38
2023/09/01 00:11:09;;;;;;;15.50;10.32;;;;;;;22.73;45.47;101258.97;5025678;28;20053;-38
2023/09/01 00:13:36;;;;;;;18.30;11.68;;;;;;;22.73;46.13;101252.72;5022090;28;20345;-38
2023/09/01 00:16:02;;;;;;;17.27;10.32;;;;;;;22.72;46.08;101248.34;5024223;28;20046;-38
2023/09/01 00:18:30;;;;;;;16.65;11.13;;;;;;;22.71;45.86;101239.34;5024938;28;20412;-38
2023/09/01 00:21:01;;;;;;;15.88;10.30;;;;;;;22.70;45.90;101242.25;5023735;28;20081;-38
2023/09/01 00:23:27;;;;;;;16.83;10.95;;;;;;;22.69;45.94;101235.16;5021427;28;20318;-38
2023/09/01 00:25:55;;;;;;;16.42;10.35;;;;;;;22.67;46.26;101244.31;5025746;28;20087;-38
2023/09/01 00:28:22;;;;;;;15.70;10.75;;;;;;;22.66;46.03;101255.25;5026176;28;20056;-38
2023/09/01 00:30:51;;;;;;;15.38;9.90;;;;;;;22.65;46.08;101262.53;5021486;28;20103;-38
2023/09/01 00:33:18;;;;;;;14.75;9.70;;;;;;;22.64;46.20;101268.97;5023431;28;20049;-38
2023/09/01 00:35:44;;;;;;;15.60;10.13;;;;;;;22.64;46.12;101265.41;5027620;28;20092;-38
2023/09/01 00:38:11;;;;;;;17.30;11.25;;;;;;;22.62;46.09;101262.03;5021771;28;20135;-38
2023/09/01 00:40:38;;;;;;;16.23;10.23;;;;;;;22.61;45.96;101261.19;5020447;28;20116;-38
2023/09/01 00:43:04;;;;;;;16.42;10.57;;;;;;;22.61;45.79;101257.66;5019644;28;20115;-38
2023/09/01 00:45:31;;;;;;;16.40;10.23;;;;;;;22.60;46.09;101267.63;5024082;28;20045;-38
2023/09/01 00:47:58;;;;;;;14.07;8.95;;;;;;;22.59;46.10;101268.66;5024380;28;20389;-38
2023/09/01 00:50:25;;;;;;;17.23;10.65;;;;;;;22.58;46.24;101261.53;5025714;28;20050;-38
2023/09/01 00:52:51;;;;;;;17.23;9.75;;;;;;;22.58;46.09;101264.22;5022736;28;20657;-38
2023/09/01 00:55:18;;;;;;;16.02;9.68;;;;;;;22.58;46.46;101266.94;5024626;28;20392;-38
2023/09/01 00:57:45;;;;;;;15.80;9.98;;;;;;;22.57;46.45;101269.81;5024033;28;20437;-38
2023/09/01 01:00:12;;;;;;;16.33;9.70;;;;;;;22.58;46.10;101266.09;5025405;28;20410;-38
2023/09/01 01:02:39;;;;;;;13.38;8.88;;;;;;;22.55;46.13;101261.91;5025012;28;20069;-38
2023/09/01 01:05:15;;;;;;;12.82;8.25;;;;;;;22.55;46.48;101256.50;5023387;28;20133;-38
2023/09/01 01:07:58;;;;;;;14.50;9.38;;;;;;;22.54;46.27;101259.34;5020560;28;20054;-38
2023/09/01 01:10:38;;;;;;;14.40;8.82;;;;;;;22.54;46.14;101267.47;5021781;28;20084;-38
2023/09/01 01:13:15;;;;;;;13.30;8.23;;;;;;;22.53;46.32;101260.38;5020409;28;20049;-38
2023/09/01 01:15:43;;;;;;;13.70;9.07;;;;;;;22.52;46.25;101269.50;5022348;28;20081;-38
2023/09/01 01:18:13;;;;;;;12.88;8.23;;;;;;;22.51;46.50;101262.41;5022422;28;20486;-38
2023/09/01 01:20:45;;;;;;;14.48;9.00;;;;;;;22.50;46.59;101264.25;5021713;28;20085;-38
2023/09/01 01:23:16;;;;;;;12.10;8.75;;;;;;;22.50;46.11;101264.25;5022777;28;20132;-38
2023/09/01 01:25:48;;;;;;;13.82;8.75;;;;;;;22.49;46.57;101253.63;5021242;28;20053;-38
2023/09/01 01:28:15;;;;;;;12.98;8.30;;;;;;;22.47;46.49;101259.19;5019606;28;20052;-38
2023/09/01 01:30:43;;;;;;;12.98;8.15;;;;;;;22.47;46.43;101255.66;5022420;28;20045;-38
2023/09/01 01:33:43;;;;;;;12.77;8.32;;;;;;;22.45;46.43;101258.53;5021702;28;20108;-38
2023/09/01 01:36:18;;;;;;;12.88;8.43;;;;;;;22.44;46.32;101264.97;5022806;28;20172;-38
2023/09/01 01:38:53;;;;;;;11.57;7.60;;;;;;;22.44;46.61;101266.81;5022386;28;20053;-38
2023/09/01 01:41:33;;;;;;;12.25;7.60;;;;;;;22.42;46.55;101273.22;5021882;28;20049;-38
2023/09/01 01:44:02;;;;;;;11.18;7.20;;;;;;;22.42;46.62;101266.97;5019424;28;20057;-38
2023/09/01 01:46:30;;;;;;;12.68;8.23;;;;;;;22.41;46.53;101265.31;5026253;28;20128;-38
2023/09/01 01:48:57;;;;;;;12.02;8.02;;;;;;;22.40;46.75;101264.47;5021848;28;20059;-38
2023/09/01 01:51:23;;;;;;;13.88;7.95;;;;;;;22.39;46.79;101262.78;5019777;28;20104;-38
2023/09/01 01:53:50;;;;;;;11.35;7.10;;;;;;;22.40;46.38;101263.63;5039723;28;20140;-38
2023/09/01 01:56:17;;;;;;;10.23;6.70;;;;;;;22.39;46.86;101256.50;5024302;28;20050;-38
2023/09/01 01:58:43;;;;;;;11.20;7.95;;;;;;;22.39;46.65;101261.91;5028754;28;20121;-38
2023/09/01 02:01:10;;;;;;;11.07;6.80;;;;;;;22.39;46.86;101261.91;5021086;28;20125;-38
2023/09/01 02:03:36;;;;;;;10.52;7.35;;;;;;;22.36;46.96;101262.28;5022603;28;20045;-38
2023/09/01 02:06:03;;;;;;;11.65;7.28;;;;;;;22.37;46.44;101263.97;5028596;28;20049;-38
2023/09/01 02:08:30;;;;;;;11.23;7.35;;;;;;;22.35;46.79;101261.44;5025259;28;20096;-38
2023/09/01 02:10:56;;;;;;;11.55;7.38;;;;;;;22.35;46.35;101261.44;5022353;28;20102;-38
2023/09/01 02:13:23;;;;;;;10.85;7.03;;;;;;;22.34;46.38;101257.03;5025353;28;20216;-38
2023/09/01 02:15:51;;;;;;;11.73;7.40;;;;;;;22.34;46.59;101250.78;5023680;28;20387;-38
2023/09/01 02:18:18;;;;;;;10.23;6.15;;;;;;;22.34;46.76;101257.03;5023647;28;20084;-38
2023/09/01 02:20:46;;;;;;;10.00;6.40;;;;;;;22.34;46.81;101253.50;5028740;28;20045;-38
2023/09/01 02:23:16;;;;;;;9.25;6.60;;;;;;;22.31;46.92;101254.69;5024440;28;20080;-38
2023/09/01 02:25:44;;;;;;;11.38;7.00;;;;;;;22.32;46.73;101250.13;5025665;28;20069;-38
2023/09/01 02:28:11;;;;;;;10.35;6.38;;;;;;;22.32;46.82;101250.13;5025739;28;20053;-38
2023/09/01 02:30:38;;;;;;;11.88;6.90;;;;;;;22.31;46.65;101253.84;5023502;28;20049;-38
2023/09/01 02:33:05;;;;;;;9.20;5.90;;;;;;;22.31;46.62;101248.44;5020026;28;20058;-38
2023/09/01 02:35:33;;;;;;;10.98;6.70;;;;;;;22.30;46.71;101258.41;5020531;28;20057;-38
2023/09/01 02:38:00;;;;;;;11.38;6.65;;;;;;;22.29;46.72;101254.00;5015552;28;20107;-38
2023/09/01 02:40:26;;;;;;;10.13;6.15;;;;;;;22.28;46.82;101260.44;5021960;28;20060;-38
2023/09/01 02:42:53;;;;;;;11.20;6.35;;;;;;;22.28;46.69;101259.59;5022770;28;20140;-38
2023/09/01 02:45:20;;;;;;;9.05;6.47;;;;;;;22.28;46.66;101260.44;5021136;28;20404;-38
2023/09/01 02:47:46;;;;;;;10.10;6.07;;;;;;;22.26;46.85;101259.75;5022236;28;20060;-38
2023/09/01 02:50:13;;;;;;;9.40;5.95;;;;;;;22.27;47.21;101257.88;5023400;28;20135;-38
2023/09/01 02:52:40;;;;;;;9.30;6.05;;;;;;;22.26;47.06;101253.50;5021349;28;20451;-38
2023/09/01 02:55:08;;;;;;;9.38;6.25;;;;;;;22.26;46.69;101240.00;5022877;28;20504;-38
2023/09/01 02:57:35;;;;;;;10.48;6.35;;;;;;;22.24;46.75;101237.50;5027315;28;20046;-38
2023/09/01 03:00:14;;;;;;;9.10;5.80;;;;;;;22.26;46.71;101237.31;5031245;28;20056;-38
2023/09/01 03:02:42;;;;;;;9.05;5.72;;;;;;;22.26;46.76;101232.75;5020307;28;20072;-38
2023/09/01 03:05:10;;;;;;;10.45;5.60;;;;;;;22.25;46.97;101235.63;5024157;28;20341;-38
2023/09/01 03:07:40;;;;;;;8.30;5.63;;;;;;;22.24;46.77;101229.41;5020995;28;20057;-38
2023/09/01 03:10:08;;;;;;;8.98;5.88;;;;;;;22.25;46.84;101227.53;5019401;28;20045;-38
2023/09/01 03:12:39;;;;;;;10.43;6.13;;;;;;;22.24;47.11;101229.41;5021033;28;20108;-38
2023/09/01 03:15:07;;;;;;;8.55;5.50;;;;;;;22.24;47.01;101225.84;5023011;28;20041;-38
2023/09/01 03:17:34;;;;;;;9.93;5.65;;;;;;;22.24;46.66;101225.84;5022636;28;20045;-38
2023/09/01 03:20:01;;;;;;;8.68;5.30;;;;;;;22.23;46.85;101232.25;5022589;28;20049;-38
2023/09/01 03:22:28;;;;;;;10.27;5.65;;;;;;;22.22;46.86;101223.31;5023675;28;20042;-38
2023/09/01 03:24:54;;;;;;;9.45;5.63;;;;;;;22.22;46.92;101233.28;5022069;28;20099;-38
2023/09/01 03:27:21;;;;;;;9.20;5.90;;;;;;;22.22;46.99;101222.47;5023286;28;20144;-38
2023/09/01 03:29:54;;;;;;;7.40;5.30;;;;;;;22.22;47.22;101225.16;5025613;28;20041;-38
2023/09/01 03:32:21;;;;;;;8.05;5.22;;;;;;;22.22;46.84;101222.47;5026831;28;20051;-38
2023/09/01 03:34:48;;;;;;;8.98;5.15;;;;;;;22.21;46.95;101218.09;5024469;28;20042;-38
2023/09/01 03:37:15;;;;;;;6.50;4.63;;;;;;;22.22;46.61;101222.47;5026526;28;20166;-38
2023/09/01 03:39:41;;;;;;;10.10;5.20;;;;;;;22.21;47.05;101221.63;5024064;28;20096;-38
2023/09/01 03:42:08;;;;;;;7.22;4.43;;;;;;;22.19;46.92;101220.94;5023754;28;20335;-38
2023/09/01 03:44:34;;;;;;;7.97;5.05;;;;;;;22.19;46.81;101226.34;5022625;28;20065;-38
2023/09/01 03:47:01;;;;;;;7.95;5.15;;;;;;;22.19;46.84;101226.34;5024866;28;20142;-38
2023/09/01 03:49:27;;;;;;;7.13;4.68;;;;;;;22.19;46.83;101229.03;5025618;28;20053;-38
2023/09/01 03:51:54;;;;;;;7.43;4.45;;;;;;;22.18;46.39;101225.50;5025866;28;20206;-38
2023/09/01 03:54:21;;;;;;;9.00;4.93;;;;;;;22.18;47.09;101224.66;5019502;28;20404;-38
2023/09/01 03:56:47;;;;;;;7.75;4.70;;;;;;;22.21;46.85;101220.78;5024042;28;20160;-37
2023/09/01 03:59:14;;;;;;;7.28;4.43;;;;;;;22.18;46.89;101219.25;5022373;28;20145;-38
2023/09/01 04:01:43;;;;;;;7.18;4.80;;;;;;;22.17;47.21;101221.13;5025738;28;20137;-38
2023/09/01 04:04:10;;;;;;;6.03;3.85;;;;;;;22.16;46.96;101216.75;5029507;28;20049;-38
2023/09/01 04:06:37;;;;;;;6.50;4.10;;;;;;;22.17;47.11;101217.59;5030096;28;20271;-38
2023/09/01 04:09:05;;;;;;;6.78;4.55;;;;;;;22.16;47.10;101214.06;5023924;28;20129;-38
2023/09/01 04:11:32;;;;;;;6.78;4.18;;;;;;;22.17;47.22;101214.88;5025194;28;20503;-38
2023/09/01 04:13:59;;;;;;;8.27;4.88;;;;;;;22.16;46.89;101222.16;5027755;28;20153;-38
2023/09/01 04:16:25;;;;;;;7.88;4.63;;;;;;;22.16;46.97;101215.91;5027730;28;20489;-38
2023/09/01 04:18:52;;;;;;;8.63;4.80;;;;;;;22.16;46.90;101218.59;5030882;28;20516;-38
2023/09/01 04:21:19;;;;;;;9.48;5.38;;;;;;;22.15;46.97;101222.31;5028496;28;20045;-38
2023/09/01 04:23:46;;;;;;;8.68;5.07;;;;;;;22.15;47.08;101211.50;5026891;28;20051;-38
2023/09/01 04:26:13;;;;;;;8.23;5.45;;;;;;;22.14;47.20;101215.22;5022030;28;20049;-38
2023/09/01 04:28:40;;;;;;;11.55;5.30;;;;;;;22.14;47.21;101210.66;5023500;28;20055;-38
2023/09/01 04:31:25;;;;;;;11.13;5.40;;;;;;;22.13;47.16;101210.84;5024172;28;20147;-38
2023/09/01 04:33:52;;;;;;;8.68;5.25;;;;;;;22.14;47.17;101213.38;5023125;28;20360;-38
2023/09/01 04:36:18;;;;;;;11.43;5.90;;;;;;;22.13;47.05;101208.16;5022144;28;20084;-38
2023/09/01 04:38:47;;;;;;;11.50;5.45;;;;;;;22.13;47.17;101208.16;5024757;28;20393;-38
2023/09/01 04:41:14;;;;;;;9.05;5.55;;;;;;;22.11;47.18;101211.00;5020087;28;20065;-38
2023/09/01 04:43:41;;;;;;;8.65;5.35;;;;;;;22.12;47.26;101211.84;5023649;28;20136;-38
2023/09/01 04:46:07;;;;;;;10.43;5.32;;;;;;;22.12;47.27;101211.84;5023121;28;20081;-38
2023/09/01 04:48:34;;;;;;;11.98;5.47;;;;;;;22.11;47.07;101221.81;5024119;28;20045;-38
2023/09/01 04:51:02;;;;;;;7.78;4.88;;;;;;;22.11;47.14;101227.19;5023909;28;20045;-38
2023/09/01 04:53:29;;;;;;;8.63;5.28;;;;;;;22.10;47.06;101222.78;5024494;28;20114;-38
2023/09/01 04:55:56;;;;;;;8.25;5.00;;;;;;;22.11;47.23;101229.91;5023516;28;20081;-38
2023/09/01 04:58:23;;;;;;;10.95;5.43;;;;;;;22.11;47.41;101223.63;5025365;28;20057;-38
2023/09/01 05:00:51;;;;;;;11.73;5.72;;;;;;;22.11;47.12;101223.63;5028489;28;20646;-38
2023/09/01 05:03:18;;;;;;;8.77;5.30;;;;;;;22.11;47.14;101223.63;5022381;28;20189;-38
2023/09/01 05:05:46;;;;;;;8.85;5.40;;;;;;;22.11;47.31;101232.59;5026284;28;20041;-38
2023/09/01 05:08:13;;;;;;;8.40;5.45;;;;;;;22.10;46.85;101228.19;5024314;28;20049;-38
2023/09/01 05:10:40;;;;;;;8.73;5.43;;;;;;;22.11;47.20;101229.91;5025800;28;20057;-38
2023/09/01 05:13:07;;;;;;;9.05;5.63;;;;;;;22.11;47.08;101231.72;5026050;28;20319;-38
2023/09/01 05:15:34;;;;;;;8.80;5.28;;;;;;;22.11;47.16;101229.03;5025043;28;20128;-38
2023/09/01 05:18:02;;;;;;;8.23;5.13;;;;;;;22.11;47.30;101240.69;5023429;28;20053;-38
2023/09/01 05:20:28;;;;;;;9.98;5.72;;;;;;;22.11;47.18;101238.00;5022881;28;20059;-38
2023/09/01 05:22:55;;;;;;;8.88;5.47;;;;;;;22.11;47.40;101235.28;5024177;28;20085;-38
2023/09/01 05:25:21;;;;;;;8.13;5.13;;;;;;;22.11;47.26;101232.59;5020388;28;20056;-38
2023/09/01 05:27:48;;;;;;;9.18;5.70;;;;;;;22.10;47.56;101230.88;5020747;28;20425;-38
2023/09/01 05:30:15;;;;;;;11.77;5.53;;;;;;;22.11;47.12;101226.31;5025718;28;20045;-38
2023/09/01 05:32:42;;;;;;;10.02;5.97;;;;;;;22.11;47.25;101232.59;5023653;28;20434;-38
2023/09/01 05:35:09;;;;;;;9.80;5.63;;;;;;;22.10;47.42;101225.50;5029572;28;20596;-38
2023/09/01 05:37:35;;;;;;;7.97;5.13;;;;;;;22.12;47.64;101230.75;5024729;28;20126;-38
2023/09/01 05:40:03;;;;;;;7.90;4.55;;;;;;;22.10;47.42;101222.78;5023477;28;20057;-38
2023/09/01 05:42:30;;;;;;;10.32;5.63;;;;;;;22.10;47.49;101220.09;5028445;28;20522;-38
2023/09/01 05:44:56;;;;;;;9.65;5.10;;;;;;;22.11;47.38;101220.94;5025672;28;20345;-38
2023/09/01 05:47:23;;;;;;;7.97;4.72;;;;;;;22.10;47.42;101228.19;5028529;28;20111;-38
2023/09/01 05:49:49;;;;;;;9.80;5.07;;;;;;;22.11;47.09;101229.03;5024622;28;20053;-38
2023/09/01 05:52:16;;;;;;;9.55;5.93;;;;;;;22.11;47.03;101223.63;5024261;28;20049;-38
2023/09/01 05:54:43;;;;;;;8.95;4.75;;;;;;;22.11;47.12;101220.94;5024730;28;20095;-38
2023/09/01 05:57:09;;;;;;;11.00;5.10;;;;;;;22.11;47.28;101227.19;5022088;28;20077;-38
2023/09/01 05:59:36;;;;;;;9.02;5.03;;;;;;;22.12;47.52;101230.75;5024161;28;20053;-38
2023/09/01 06:02:02;;;;;;;9.38;5.30;;;;;;;22.10;47.10;101230.88;5019488;28;20132;-38
2023/09/01 06:04:29;;;;;;;8.48;4.88;;;;;;;22.12;47.47;101228.88;5020915;28;20053;-38
2023/09/01 06:06:55;;;;;;;7.85;5.05;;;;;;;22.12;47.42;101234.28;5025954;28;20095;-37
2023/09/01 06:09:22;;;;;;;7.70;4.35;;;;;;;22.12;47.49;101241.53;5023092;28;20057;-37
2023/09/01 06:11:49;;;;;;;9.10;4.63;;;;;;;22.12;47.49;101247.78;5022453;28;20521;-37
2023/09/01 06:14:15;;;;;;;11.50;5.28;;;;;;;22.13;47.22;101246.78;5025416;28;20136;-37
2023/09/01 06:16:44;;;;;;;8.63;4.97;;;;;;;22.12;47.19;101245.06;5023812;28;20120;-37
2023/09/01 06:19:11;;;;;;;8.60;4.72;;;;;;;22.13;47.55;101251.34;5023640;28;20053;-37
2023/09/01 06:21:37;;;;;;;10.40;5.00;;;;;;;22.14;47.57;101258.41;5026031;28;20081;-37
2023/09/01 06:24:04;;;;;;;7.68;4.63;;;;;;;22.14;47.58;101253.88;5022313;28;20124;-37
2023/09/01 06:26:31;;;;;;;7.30;4.35;;;;;;;22.14;47.43;101258.41;5025556;28;20504;-37
2023/09/01 06:28:57;;;;;;;6.68;4.28;;;;;;;22.14;47.53;101253.88;5027176;28;20140;-37
2023/09/01 06:31:24;;;;;;;7.18;4.07;;;;;;;22.15;47.48;101260.09;5024112;28;20050;-38
2023/09/01 06:33:50;;;;;;;8.85;4.68;;;;;;;22.14;47.12;101267.34;5020047;28;20077;-37
2023/09/01 06:36:19;;;;;;;7.40;4.15;;;;;;;22.14;47.47;101255.72;5025130;28;20056;-37
2023/09/01 06:38:45;;;;;;;7.82;4.55;;;;;;;22.14;47.39;101258.41;5024242;28;20111;-37
2023/09/01 06:41:12;;;;;;;10.55;4.35;;;;;;;22.16;47.27;101256.41;5024513;28;20136;-38
2023/09/01 06:43:39;;;;;;;8.25;4.57;;;;;;;22.15;47.13;101260.97;5022954;28;20053;-37
2023/09/01 06:46:05;;;;;;;8.05;4.43;;;;;;;22.14;47.42;101253.88;5019040;28;20108;-37
2023/09/01 06:48:32;;;;;;;8.25;4.20;;;;;;;22.16;47.42;101259.13;5020850;28;20045;-35
2023/09/01 06:50:59;;;;;;;9.90;4.65;;;;;;;22.17;47.92;101263.50;5020972;28;20112;-39
2023/09/01 06:53:26;;;;;;;9.43;5.10;;;;;;;22.16;47.75;101265.34;5027541;28;20168;-38
2023/09/01 06:55:53;;;;;;;7.32;4.45;;;;;;;22.17;47.93;101274.28;5022833;28;20127;-38
2023/09/01 06:58:20;;;;;;;9.25;4.53;;;;;;;22.17;48.06;101267.03;5024320;28;20050;-38
2023/09/01 07:00:46;;;;;;;9.13;4.70;;;;;;;22.17;48.57;101269.72;5021494;28;20134;-38
2023/09/01 07:03:13;;;;;;;11.07;4.68;;;;;;;22.17;48.38;101261.63;5018585;28;20049;-38
2023/09/01 07:05:39;;;;;;;9.75;5.00;;;;;;;22.16;48.56;101261.81;5019715;28;20050;-39
2023/09/01 07:08:12;;;;;;;10.50;4.20;;;;;;;22.16;48.50;101259.94;5016082;28;20046;-39
2023/09/01 07:10:39;;;;;;;10.73;4.22;;;;;;;22.16;48.60;101257.25;5014717;28;20448;-39
2023/09/01 07:13:10;;;;;;;9.60;4.57;;;;;;;22.16;48.78;101248.31;5027724;28;20099;-39
2023/09/01 07:15:37;;;;;;;11.32;4.55;;;;;;;22.17;48.95;101241.88;5028577;28;20080;-39
2023/09/01 07:18:04;;;;;;;6.70;4.25;;;;;;;22.16;48.86;101241.06;5026036;28;20045;-39
2023/09/01 07:20:30;;;;;;;9.73;4.18;;;;;;;22.15;48.93;101247.47;5028465;28;20053;-39
2023/09/01 07:22:57;;;;;;;8.75;4.10;;;;;;;22.16;49.31;101241.06;5023197;28;20056;-39
2023/09/01 07:25:23;;;;;;;9.88;4.05;;;;;;;22.16;48.96;101240.22;5022982;28;20050;-39
2023/09/01 07:27:50;;;;;;;11.88;4.95;;;;;;;22.16;49.40;101235.66;5024428;28;20135;-39
2023/09/01 07:30:17;;;;;;;13.63;5.32;;;;;;;22.16;49.22;101232.94;5017940;28;20093;-39
2023/09/01 07:32:43;;;;;;;16.02;5.45;;;;;;;22.16;49.30;101234.81;5019111;28;21732;-39
2023/09/01 07:35:10;;;;;;;11.13;5.20;;;;;;;22.15;49.43;101236.66;5016600;28;20436;-39
2023/09/01 07:37:37;;;;;;;16.30;5.90;;;;;;;22.16;49.25;101230.25;5027301;28;20492;-39
2023/09/01 07:40:04;;;;;;;19.65;5.88;;;;;;;22.16;49.31;101238.34;5026094;28;20045;-39
2023/09/01 07:42:31;;;;;;;18.27;5.43;;;;;;;22.16;49.46;101229.41;5028543;28;20342;-39
2023/09/01 07:44:57;;;;;;;19.75;6.13;;;;;;;22.15;49.58;101238.50;5029426;28;20053;-39
2023/09/01 07:47:24;;;;;;;12.35;4.72;;;;;;;22.16;49.39;101242.91;5030354;28;20085;-39
2023/09/01 07:49:51;;;;;;;18.23;5.85;;;;;;;22.15;50.11;101250.16;5024125;28;20049;-39
2023/09/01 07:52:17;;;;;;;11.48;4.90;;;;;;;22.14;49.74;101248.47;5025927;28;20045;-39
2023/09/01 07:54:44;;;;;;;16.00;5.65;;;;;;;22.15;49.55;101244.78;5022849;28;20120;-39
2023/09/01 07:57:10;;;;;;;13.15;4.95;;;;;;;22.14;49.88;101231.41;5028138;28;20045;-39
2023/09/01 07:59:37;;;;;;;8.50;4.55;;;;;;;22.15;49.89;101235.81;5026742;28;20046;-39
2023/09/01 08:02:04;;;;;;;12.85;4.85;;;;;;;22.14;50.03;101248.47;5021975;28;20060;-39
2023/09/01 08:04:30;;;;;;;11.43;4.10;;;;;;;22.15;49.93;101252.00;5020722;28;20543;-39
2023/09/01 08:06:59;;;;;;;11.43;4.18;;;;;;;22.15;50.13;101257.41;5017989;28;20087;-39
2023/09/01 08:09:26;;;;;;;10.13;4.03;;;;;;;22.14;49.80;101270.06;5020644;28;20049;-39
2023/09/01 08:11:53;;;;;;;10.68;4.18;;;;;;;22.14;50.06;101270.06;5023239;28;20057;-38
2023/09/01 08:14:19;;;;;;;10.80;4.40;;;;;;;22.13;49.83;101271.09;5025368;28;20106;-39
2023/09/01 08:16:47;;;;;;;12.75;4.88;;;;;;;22.13;50.21;101273.78;5028903;28;20212;-38
2023/09/01 08:19:14;;;;;;;10.20;3.72;;;;;;;22.14;49.99;101277.31;5028154;28;20053;-38
2023/09/01 08:21:41;;;;;;;9.55;3.95;;;;;;;22.13;49.86;101273.78;5021418;28;20488;-38
2023/09/01 08:24:08;;;;;;;10.80;3.90;;;;;;;22.12;49.91;101266.66;5017669;28;20053;-38
2023/09/01 08:26:35;;;;;;;11.60;4.30;;;;;;;22.13;49.97;101264.84;5025443;28;20056;-38
2023/09/01 08:29:04;;;;;;;10.18;4.05;;;;;;;22.12;49.91;101258.56;5025690;28;20049;-38
2023/09/01 08:31:32;;;;;;;10.68;4.10;;;;;;;22.13;49.98;101262.97;5027447;28;20049;-39
2023/09/01 08:33:58;;;;;;;9.55;3.80;;;;;;;22.13;50.00;101264.84;5021976;28;20057;-38
2023/09/01 08:36:26;;;;;;;13.70;3.95;;;;;;;22.12;50.03;101255.88;5023458;28;20318;-38
2023/09/01 08:38:53;;;;;;;10.13;4.13;;;;;;;22.13;50.08;101260.28;5022003;28;20054;-39
2023/09/01 08:41:19;;;;;;;9.93;4.03;;;;;;;22.13;50.17;101271.09;5024986;28;20076;-39
2023/09/01 08:43:50;;;;;;;8.05;3.72;;;;;;;22.13;50.27;101267.53;5024409;28;20057;-38
2023/09/01 08:46:21;;;;;;;10.52;3.80;;;;;;;22.13;50.00;101260.28;5022453;28;20049;-38
2023/09/01 08:48:48;;;;;;;7.75;3.63;;;;;;;22.14;49.86;101258.41;5016629;28;20059;-38
2023/09/01 08:51:14;;;;;;;8.27;3.38;;;;;;;22.14;49.98;101259.25;5015410;28;20512;-38
2023/09/01 08:53:42;;;;;;;9.52;3.40;;;;;;;22.14;50.22;101253.88;5024116;28;20502;-38
2023/09/01 08:56:08;;;;;;;10.20;3.80;;;;;;;22.15;50.27;101262.81;5014887;28;20425;-39
2023/09/01 08:58:36;;;;;;;6.80;3.00;;;;;;;22.14;50.30;101261.97;5018551;28;20176;-39
2023/09/01 09:01:03;;;;;;;6.30;3.33;;;;;;;22.15;50.17;101257.41;5026002;28;20154;-39
2023/09/01 09:03:30;;;;;;;7.25;3.42;;;;;;;22.15;50.20;101266.38;5020755;28;20045;-39
2023/09/01 09:05:56;;;;;;;7.00;3.40;;;;;;;22.16;50.36;101264.50;5022539;28;20476;-39
2023/09/01 09:08:23;;;;;;;7.40;3.28;;;;;;;22.14;50.28;101253.88;5025145;28;20081;-39
2023/09/01 09:10:50;;;;;;;6.32;2.72;;;;;;;22.14;50.36;101270.06;5025465;28;20058;-39
2023/09/01 09:13:21;;;;;;;5.43;3.08;;;;;;;22.13;50.17;101276.47;5021621;28;20414;-39
2023/09/01 09:16:08;;;;;;;7.07;3.00;;;;;;;22.12;50.59;101277.47;5024065;28;20465;-39
2023/09/01 09:18:36;;;;;;;6.47;2.85;;;;;;;22.14;50.32;101280.03;5023076;28;20096;-39
2023/09/01 09:21:03;;;;;;;5.45;2.90;;;;;;;22.14;50.53;101282.72;5022787;28;20327;-39
2023/09/01 09:23:41;;;;;;;7.35;3.25;;;;;;;22.13;50.33;101289.13;5029842;28;20053;-39
2023/09/01 09:26:08;;;;;;;6.32;3.35;;;;;;;22.15;50.29;101296.06;5024412;28;20140;-39
2023/09/01 09:28:34;;;;;;;5.68;2.72;;;;;;;22.14;50.30;101302.47;5021720;28;20042;-39
2023/09/01 09:31:01;;;;;;;5.88;2.75;;;;;;;22.14;50.33;101291.66;5026247;28;20479;-39
2023/09/01 09:33:30;;;;;;;5.50;2.60;;;;;;;22.14;50.48;101299.75;5025899;28;20073;-39
2023/09/01 09:35:56;;;;;;;7.43;2.70;;;;;;;22.14;50.53;101302.47;5021913;28;20060;-39
2023/09/01 09:38:23;;;;;;;5.55;2.50;;;;;;;22.14;50.22;101310.56;5020597;28;20054;-39
2023/09/01 09:41:00;;;;;;;6.03;2.90;;;;;;;22.13;50.50;101308.88;5023346;28;20116;-38
2023/09/01 09:43:30;;;;;;;7.07;2.97;;;;;;;22.14;50.53;101310.56;5026623;28;20095;-38
2023/09/01 09:45:57;;;;;;;6.50;2.72;;;;;;;22.14;50.67;101315.13;5028684;28;20045;-39
2023/09/01 09:48:23;;;;;;;7.57;2.67;;;;;;;22.13;50.46;101316.97;5025134;28;20046;-39
2023/09/01 09:50:54;;;;;;;5.57;2.35;;;;;;;22.13;50.59;101322.38;5026055;28;20081;-39
2023/09/01 09:53:25;;;;;;;8.98;2.65;;;;;;;22.13;50.73;101316.97;5026140;28;20158;-38
2023/09/01 09:55:53;;;;;;;5.60;2.22;;;;;;;22.14;50.55;101309.72;5028659;28;20054;-38
2023/09/01 09:58:34;;;;;;;6.38;2.28;;;;;;;22.12;50.71;101315.28;5025664;28;20127;-39
2023/09/01 10:01:11;;;;;;;5.70;2.80;;;;;;;22.13;50.71;101316.97;5024869;28;20120;-39
2023/09/01 10:03:38;;;;;;;4.75;2.50;;;;;;;22.14;50.74;101315.13;5023521;28;20058;-39
2023/09/01 10:06:05;;;;;;;5.13;2.40;;;;;;;22.14;50.80;101323.22;5023904;28;20042;-39
2023/09/01 10:08:33;;;;;;;4.25;2.67;;;;;;;22.14;50.90;101323.22;5024092;28;20045;-39
2023/09/01 10:11:02;;;;;;;4.05;2.50;;;;;;;22.14;50.72;101328.63;5023067;28;20319;-39
2023/09/01 10:13:30;;;;;;;4.07;2.20;;;;;;;22.14;50.72;101320.53;5024133;28;20096;-39
2023/09/01 10:15:57;;;;;;;6.40;2.45;;;;;;;22.14;50.96;101328.63;5024069;28;20050;-39
2023/09/01 10:18:24;;;;;;;5.18;2.70;;;;;;;22.14;50.77;101324.06;5021545;28;20053;-39
2023/09/01 10:20:51;;;;;;;3.25;2.28;;;;;;;22.15;50.82;101325.78;5025887;28;20099;-39
2023/09/01 10:23:19;;;;;;;4.95;2.35;;;;;;;22.17;50.55;101322.88;5024114;28;20095;-39
2023/09/01 10:26:15;;;;;;;4.82;2.72;;;;;;;22.17;51.19;101329.13;5020709;28;20046;-39
2023/09/01 10:28:56;;;;;;;10.00;2.95;;;;;;;22.18;51.29;101325.41;5024904;28;20437;-39
2023/09/01 10:31:23;;;;;;;4.95;2.70;;;;;;;22.21;51.07;101320.69;5023587;28;20072;-39
2023/09/01 10:34:08;;;;;;;5.20;2.53;;;;;;;22.18;51.20;101317.31;5025523;28;20049;-39
2023/09/01 10:36:36;;;;;;;5.47;3.00;;;;;;;22.22;50.98;101314.28;5024414;28;20045;-39
2023/09/01 10:39:26;;;;;;;7.93;2.92;;;;;;;22.21;51.56;101313.44;5026170;28;20057;-39
2023/09/01 10:42:02;;;;;;;7.30;3.03;;;;;;;22.24;51.73;101317.66;5026571;28;20057;-38
2023/09/01 10:44:44;;;;;;;6.55;2.97;;;;;;;22.25;51.52;101311.25;5028096;28;20145;-39
2023/09/01 10:47:32;;;;;;;4.28;2.53;;;;;;;22.26;52.53;101318.31;5028318;28;20438;-39
2023/09/01 10:50:03;;;;;;;6.93;3.60;;;;;;;22.29;51.68;101328.78;5032375;28;20071;-38
2023/09/01 10:52:34;;;;;;;10.57;3.40;;;;;;;22.31;51.95;101321.34;5050269;28;20377;-38
2023/09/01 10:55:05;;;;;;;10.63;4.03;;;;;;;22.31;51.94;101324.91;5027657;28;20132;-39
2023/09/01 10:57:53;;;;;;;8.52;3.53;;;;;;;22.32;52.63;101332.00;5028884;28;20045;-39
2023/09/01 11:00:33;;;;;;;7.70;3.88;;;;;;;22.35;52.84;101336.19;5029473;28;20057;-39
2023/09/01 11:03:30;;;;;;;9.77;4.45;;;;;;;22.29;53.13;101337.72;5032386;28;20380;-39
2023/09/01 11:05:58;;;;;;;10.95;5.10;;;;;;;22.29;52.60;101331.50;5027211;28;20128;-38
2023/09/01 11:08:25;;;;;;;10.88;4.53;;;;;;;22.27;52.41;101338.91;5028390;28;20111;-39
2023/09/01 11:10:55;;;;;;;7.30;3.40;;;;;;;22.29;52.57;101340.44;5029123;28;20053;-39
2023/09/01 11:13:26;;;;;;;9.60;3.80;;;;;;;22.30;52.39;101338.56;5027070;28;20341;-39
2023/09/01 11:15:53;;;;;;;6.57;3.30;;;;;;;22.29;52.15;101326.09;5027759;28;20108;-39
2023/09/01 11:18:21;;;;;;;8.60;3.75;;;;;;;22.29;52.13;101329.63;5030209;28;20368;-40
2023/09/01 11:20:52;;;;;;;7.68;3.20;;;;;;;22.30;52.40;101330.47;5027966;28;20054;-40
2023/09/01 11:23:23;;;;;;;6.43;3.70;;;;;;;22.29;52.70;101347.69;5030252;28;20049;-40
2023/09/01 11:26:10;;;;;;;6.97;3.80;;;;;;;22.27;53.23;101344.31;5026309;28;20432;-39
2023/09/01 11:28:39;;;;;;;8.93;5.03;;;;;;;22.24;53.26;101350.06;5026844;28;20045;-40